sensor_id;sensor_type;location;lat;lon;timestamp;P1;durP1;ratioP1;P2;durP2;ratioP2
80852;SDS011;70270;43.434;28.338;2023-06-10T00:01:39;9.68;;;5.60;;
80852;SDS011;70270;43.434;28.338;2023-06-10T00:04:24;13.00;;;5.90;;
80852;SDS011;70270;43.434;28.338;2023-06-10T00:07:09;10.05;;;5.95;;
80852;SDS011;70270;43.434;28.338;2023-06-10T00:09:53;10.60;;;6.38;;
80852;SDS011;70270;43.434;28.338;2023-06-10T00:12:39;10.48;;;6.35;;
80852;SDS011;70270;43.434;28.338;2023-06-10T00:15:24;10.73;;;5.97;;
80852;SDS011;70270;43.434;28.338;2023-06-10T00:18:08;8.98;;;5.82;;
80852;SDS011;70270;43.434;28.338;2023-06-10T00:20:53;10.38;;;5.30;;
80852;SDS011;70270;43.434;28.338;2023-06-10T00:23:39;8.93;;;4.97;;
80852;SDS011;70270;43.434;28.338;2023-06-10T00:26:23;10.30;;;5.43;;
80852;SDS011;70270;43.434;28.338;2023-06-10T00:29:10;10.35;;;5.40;;
80852;SDS011;70270;43.434;28.338;2023-06-10T00:31:55;10.88;;;5.40;;
80852;SDS011;70270;43.434;28.338;2023-06-10T00:34:41;11.77;;;5.70;;
80852;SDS011;70270;43.434;28.338;2023-06-10T00:37:26;8.68;;;5.47;;
80852;SDS011;70270;43.434;28.338;2023-06-10T00:40:15;9.75;;;5.68;;
80852;SDS011;70270;43.434;28.338;2023-06-10T00:42:59;11.50;;;5.90;;
80852;SDS011;70270;43.434;28.338;2023-06-10T00:45:43;11.93;;;6.32;;
80852;SDS011;70270;43.434;28.338;2023-06-10T00:48:28;11.18;;;6.05;;
80852;SDS011;70270;43.434;28.338;2023-06-10T00:51:15;9.85;;;5.95;;
80852;SDS011;70270;43.434;28.338;2023-06-10T00:54:00;9.18;;;5.57;;
80852;SDS011;70270;43.434;28.338;2023-06-10T00:56:46;9.52;;;6.00;;
80852;SDS011;70270;43.434;28.338;2023-06-10T00:59:30;10.65;;;6.10;;
80852;SDS011;70270;43.434;28.338;2023-06-10T01:02:15;10.60;;;6.45;;
80852;SDS011;70270;43.434;28.338;2023-06-10T01:05:00;8.57;;;5.90;;
80852;SDS011;70270;43.434;28.338;2023-06-10T01:07:50;14.30;;;6.72;;
80852;SDS011;70270;43.434;28.338;2023-06-10T01:10:45;10.55;;;5.97;;
80852;SDS011;70270;43.434;28.338;2023-06-10T01:13:34;11.07;;;5.85;;
80852;SDS011;70270;43.434;28.338;2023-06-10T01:16:22;11.50;;;6.72;;
80852;SDS011;70270;43.434;28.338;2023-06-10T01:19:07;14.23;;;6.40;;
80852;SDS011;70270;43.434;28.338;2023-06-10T01:21:52;11.25;;;5.68;;
80852;SDS011;70270;43.434;28.338;2023-06-10T01:24:38;11.32;;;6.07;;
80852;SDS011;70270;43.434;28.338;2023-06-10T01:27:26;10.15;;;6.60;;
80852;SDS011;70270;43.434;28.338;2023-06-10T01:30:14;11.02;;;6.30;;
80852;SDS011;70270;43.434;28.338;2023-06-10T01:33:02;14.20;;;6.45;;
80852;SDS011;70270;43.434;28.338;2023-06-10T01:35:50;11.27;;;6.18;;
80852;SDS011;70270;43.434;28.338;2023-06-10T01:38:40;10.25;;;5.75;;
80852;SDS011;70270;43.434;28.338;2023-06-10T01:41:27;10.48;;;6.05;;
80852;SDS011;70270;43.434;28.338;2023-06-10T01:44:17;11.15;;;5.88;;
80852;SDS011;70270;43.434;28.338;2023-06-10T01:47:03;14.10;;;6.32;;
80852;SDS011;70270;43.434;28.338;2023-06-10T01:49:48;11.63;;;5.63;;
80852;SDS011;70270;43.434;28.338;2023-06-10T01:52:32;8.75;;;5.80;;
80852;SDS011;70270;43.434;28.338;2023-06-10T01:55:18;10.88;;;6.20;;
80852;SDS011;70270;43.434;28.338;2023-06-10T01:58:03;10.57;;;6.53;;
80852;SDS011;70270;43.434;28.338;2023-06-10T02:00:47;10.57;;;5.55;;
80852;SDS011;70270;43.434;28.338;2023-06-10T02:03:31;12.52;;;6.22;;
80852;SDS011;70270;43.434;28.338;2023-06-10T02:06:16;14.20;;;6.13;;
80852;SDS011;70270;43.434;28.338;2023-06-10T02:09:00;7.82;;;5.32;;
80852;SDS011;70270;43.434;28.338;2023-06-10T02:11:47;9.02;;;5.47;;
80852;SDS011;70270;43.434;28.338;2023-06-10T02:14:32;9.48;;;6.07;;
80852;SDS011;70270;43.434;28.338;2023-06-10T02:17:17;9.10;;;5.88;;
80852;SDS011;70270;43.434;28.338;2023-06-10T02:20:02;12.65;;;5.78;;
80852;SDS011;70270;43.434;28.338;2023-06-10T02:22:51;9.73;;;5.70;;
80852;SDS011;70270;43.434;28.338;2023-06-10T02:25:36;10.43;;;6.13;;
80852;SDS011;70270;43.434;28.338;2023-06-10T02:28:20;11.80;;;5.32;;
80852;SDS011;70270;43.434;28.338;2023-06-10T02:31:05;12.35;;;5.50;;
80852;SDS011;70270;43.434;28.338;2023-06-10T02:33:49;11.20;;;5.45;;
80852;SDS011;70270;43.434;28.338;2023-06-10T02:36:34;9.98;;;4.93;;
80852;SDS011;70270;43.434;28.338;2023-06-10T02:39:20;9.40;;;5.28;;
80852;SDS011;70270;43.434;28.338;2023-06-10T02:42:06;10.35;;;5.80;;
80852;SDS011;70270;43.434;28.338;2023-06-10T02:44:50;9.57;;;5.60;;
80852;SDS011;70270;43.434;28.338;2023-06-10T02:47:45;13.50;;;5.18;;
80852;SDS011;70270;43.434;28.338;2023-06-10T02:50:30;7.57;;;5.20;;
80852;SDS011;70270;43.434;28.338;2023-06-10T02:53:34;7.53;;;5.25;;
80852;SDS011;70270;43.434;28.338;2023-06-10T02:56:23;9.13;;;5.32;;
80852;SDS011;70270;43.434;28.338;2023-06-10T02:59:10;8.50;;;5.25;;
80852;SDS011;70270;43.434;28.338;2023-06-10T03:01:55;9.02;;;4.97;;
80852;SDS011;70270;43.434;28.338;2023-06-10T03:04:44;10.52;;;5.43;;
80852;SDS011;70270;43.434;28.338;2023-06-10T03:07:32;11.88;;;4.68;;
80852;SDS011;70270;43.434;28.338;2023-06-10T03:10:19;12.40;;;4.95;;
80852;SDS011;70270;43.434;28.338;2023-06-10T03:13:03;10.93;;;4.80;;
80852;SDS011;70270;43.434;28.338;2023-06-10T03:15:48;10.05;;;5.10;;
80852;SDS011;70270;43.434;28.338;2023-06-10T03:18:38;11.82;;;5.45;;
80852;SDS011;70270;43.434;28.338;2023-06-10T03:21:23;13.02;;;5.80;;
80852;SDS011;70270;43.434;28.338;2023-06-10T03:24:08;8.77;;;5.53;;
80852;SDS011;70270;43.434;28.338;2023-06-10T03:26:53;13.00;;;4.43;;
80852;SDS011;70270;43.434;28.338;2023-06-10T03:32:24;9.60;;;5.25;;
80852;SDS011;70270;43.434;28.338;2023-06-10T03:35:10;10.15;;;5.35;;
80852;SDS011;70270;43.434;28.338;2023-06-10T03:37:55;13.10;;;5.40;;
80852;SDS011;70270;43.434;28.338;2023-06-10T03:40:40;12.05;;;5.90;;
80852;SDS011;70270;43.434;28.338;2023-06-10T03:43:25;12.05;;;5.53;;
80852;SDS011;70270;43.434;28.338;2023-06-10T03:46:09;14.52;;;6.00;;
80852;SDS011;70270;43.434;28.338;2023-06-10T03:48:56;10.15;;;5.57;;
80852;SDS011;70270;43.434;28.338;2023-06-10T03:51:41;18.42;;;7.72;;
80852;SDS011;70270;43.434;28.338;2023-06-10T03:54:25;11.57;;;6.72;;
80852;SDS011;70270;43.434;28.338;2023-06-10T03:57:09;14.45;;;7.15;;
80852;SDS011;70270;43.434;28.338;2023-06-10T03:59:54;11.82;;;7.10;;
80852;SDS011;70270;43.434;28.338;2023-06-10T04:05:34;17.20;;;6.00;;
80852;SDS011;70270;43.434;28.338;2023-06-10T04:08:19;10.77;;;6.35;;
80852;SDS011;70270;43.434;28.338;2023-06-10T04:11:04;15.30;;;5.85;;
80852;SDS011;70270;43.434;28.338;2023-06-10T04:13:49;13.85;;;6.32;;
80852;SDS011;70270;43.434;28.338;2023-06-10T04:16:33;184.23;;;97.47;;
80852;SDS011;70270;43.434;28.338;2023-06-10T04:19:19;191.95;;;101.57;;
80852;SDS011;70270;43.434;28.338;2023-06-10T04:22:04;55.80;;;31.77;;
80852;SDS011;70270;43.434;28.338;2023-06-10T04:24:50;544.53;;;380.48;;
80852;SDS011;70270;43.434;28.338;2023-06-10T04:27:35;316.00;;;138.82;;
80852;SDS011;70270;43.434;28.338;2023-06-10T04:30:19;152.65;;;77.13;;
80852;SDS011;70270;43.434;28.338;2023-06-10T04:33:04;103.50;;;71.35;;
80852;SDS011;70270;43.434;28.338;2023-06-10T04:35:50;47.05;;;33.88;;
80852;SDS011;70270;43.434;28.338;2023-06-10T04:38:37;16.25;;;8.10;;
80852;SDS011;70270;43.434;28.338;2023-06-10T04:41:21;20.27;;;8.57;;
80852;SDS011;70270;43.434;28.338;2023-06-10T04:44:06;16.42;;;8.00;;
80852;SDS011;70270;43.434;28.338;2023-06-10T04:46:51;14.43;;;6.50;;
80852;SDS011;70270;43.434;28.338;2023-06-10T04:49:40;11.18;;;6.82;;
80852;SDS011;70270;43.434;28.338;2023-06-10T04:52:27;13.27;;;6.53;;
80852;SDS011;70270;43.434;28.338;2023-06-10T04:55:12;12.57;;;6.35;;
80852;SDS011;70270;43.434;28.338;2023-06-10T04:57:56;11.82;;;6.95;;
80852;SDS011;70270;43.434;28.338;2023-06-10T05:00:44;13.27;;;6.45;;
80852;SDS011;70270;43.434;28.338;2023-06-10T05:03:31;16.38;;;6.40;;
80852;SDS011;70270;43.434;28.338;2023-06-10T05:06:15;9.35;;;5.97;;
80852;SDS011;70270;43.434;28.338;2023-06-10T05:09:00;12.70;;;6.00;;
80852;SDS011;70270;43.434;28.338;2023-06-10T05:11:44;13.13;;;6.68;;
80852;SDS011;70270;43.434;28.338;2023-06-10T05:14:29;13.70;;;6.35;;
80852;SDS011;70270;43.434;28.338;2023-06-10T05:17:13;16.35;;;6.30;;
80852;SDS011;70270;43.434;28.338;2023-06-10T05:20:00;10.77;;;4.93;;
80852;SDS011;70270;43.434;28.338;2023-06-10T05:22:46;9.00;;;5.10;;
80852;SDS011;70270;43.434;28.338;2023-06-10T05:25:30;7.78;;;4.55;;
80852;SDS011;70270;43.434;28.338;2023-06-10T05:28:19;8.98;;;4.57;;
80852;SDS011;70270;43.434;28.338;2023-06-10T05:31:03;9.43;;;4.63;;
80852;SDS011;70270;43.434;28.338;2023-06-10T05:33:47;13.63;;;4.22;;
80852;SDS011;70270;43.434;28.338;2023-06-10T05:36:32;11.93;;;4.20;;
80852;SDS011;70270;43.434;28.338;2023-06-10T05:39:16;12.18;;;6.32;;
80852;SDS011;70270;43.434;28.338;2023-06-10T05:42:01;7.18;;;4.32;;
80852;SDS011;70270;43.434;28.338;2023-06-10T05:44:46;8.27;;;3.70;;
80852;SDS011;70270;43.434;28.338;2023-06-10T05:47:31;11.18;;;4.85;;
80852;SDS011;70270;43.434;28.338;2023-06-10T05:50:15;13.07;;;5.80;;
80852;SDS011;70270;43.434;28.338;2023-06-10T05:53:00;8.95;;;4.30;;
80852;SDS011;70270;43.434;28.338;2023-06-10T05:55:44;6.80;;;4.18;;
80852;SDS011;70270;43.434;28.338;2023-06-10T05:58:29;11.43;;;6.00;;
80852;SDS011;70270;43.434;28.338;2023-06-10T06:01:14;11.68;;;5.65;;
80852;SDS011;70270;43.434;28.338;2023-06-10T06:03:59;13.57;;;6.65;;
80852;SDS011;70270;43.434;28.338;2023-06-10T06:06:44;10.00;;;4.80;;
80852;SDS011;70270;43.434;28.338;2023-06-10T06:09:28;8.73;;;4.38;;
80852;SDS011;70270;43.434;28.338;2023-06-10T06:12:15;6.22;;;3.65;;
80852;SDS011;70270;43.434;28.338;2023-06-10T06:14:59;6.32;;;3.55;;
80852;SDS011;70270;43.434;28.338;2023-06-10T06:17:44;7.05;;;3.70;;
80852;SDS011;70270;43.434;28.338;2023-06-10T06:20:28;13.18;;;4.57;;
80852;SDS011;70270;43.434;28.338;2023-06-10T06:23:13;9.18;;;3.75;;
80852;SDS011;70270;43.434;28.338;2023-06-10T06:25:58;9.98;;;4.90;;
80852;SDS011;70270;43.434;28.338;2023-06-10T06:28:42;9.52;;;5.15;;
80852;SDS011;70270;43.434;28.338;2023-06-10T06:31:27;11.25;;;5.65;;
80852;SDS011;70270;43.434;28.338;2023-06-10T06:34:11;8.70;;;4.40;;
80852;SDS011;70270;43.434;28.338;2023-06-10T06:36:55;10.70;;;4.38;;
80852;SDS011;70270;43.434;28.338;2023-06-10T06:39:40;9.10;;;3.90;;
80852;SDS011;70270;43.434;28.338;2023-06-10T06:42:25;9.95;;;3.97;;
80852;SDS011;70270;43.434;28.338;2023-06-10T06:45:32;10.32;;;5.25;;
80852;SDS011;70270;43.434;28.338;2023-06-10T06:48:17;8.68;;;3.50;;
80852;SDS011;70270;43.434;28.338;2023-06-10T06:51:02;7.10;;;3.72;;
80852;SDS011;70270;43.434;28.338;2023-06-10T06:53:46;7.30;;;4.30;;
80852;SDS011;70270;43.434;28.338;2023-06-10T06:56:34;8.65;;;4.28;;
80852;SDS011;70270;43.434;28.338;2023-06-10T06:59:19;10.00;;;3.60;;
80852;SDS011;70270;43.434;28.338;2023-06-10T07:02:03;8.77;;;3.72;;
80852;SDS011;70270;43.434;28.338;2023-06-10T07:04:48;7.47;;;3.90;;
80852;SDS011;70270;43.434;28.338;2023-06-10T07:07:39;7.20;;;3.88;;
80852;SDS011;70270;43.434;28.338;2023-06-10T07:10:26;9.82;;;3.83;;
80852;SDS011;70270;43.434;28.338;2023-06-10T07:13:11;8.63;;;4.13;;
80852;SDS011;70270;43.434;28.338;2023-06-10T07:15:56;11.82;;;4.03;;
80852;SDS011;70270;43.434;28.338;2023-06-10T07:18:40;7.05;;;4.55;;
80852;SDS011;70270;43.434;28.338;2023-06-10T07:21:25;11.35;;;4.55;;
80852;SDS011;70270;43.434;28.338;2023-06-10T07:24:09;8.30;;;3.97;;
80852;SDS011;70270;43.434;28.338;2023-06-10T07:26:54;9.10;;;3.95;;
80852;SDS011;70270;43.434;28.338;2023-06-10T07:29:38;9.02;;;3.90;;
80852;SDS011;70270;43.434;28.338;2023-06-10T07:32:26;9.20;;;4.88;;
80852;SDS011;70270;43.434;28.338;2023-06-10T07:35:13;15.65;;;11.07;;
80852;SDS011;70270;43.434;28.338;2023-06-10T07:37:58;7.90;;;3.60;;
80852;SDS011;70270;43.434;28.338;2023-06-10T07:40:42;7.30;;;3.70;;
80852;SDS011;70270;43.434;28.338;2023-06-10T07:43:27;8.07;;;4.93;;
80852;SDS011;70270;43.434;28.338;2023-06-10T07:46:14;7.13;;;4.50;;
80852;SDS011;70270;43.434;28.338;2023-06-10T07:51:44;7.78;;;4.03;;
80852;SDS011;70270;43.434;28.338;2023-06-10T07:54:31;8.93;;;4.18;;
80852;SDS011;70270;43.434;28.338;2023-06-10T07:57:16;11.55;;;4.88;;
80852;SDS011;70270;43.434;28.338;2023-06-10T08:00:01;16.58;;;4.07;;
80852;SDS011;70270;43.434;28.338;2023-06-10T08:02:56;11.75;;;4.22;;
80852;SDS011;70270;43.434;28.338;2023-06-10T08:05:43;11.18;;;4.88;;
80852;SDS011;70270;43.434;28.338;2023-06-10T08:08:28;9.80;;;4.40;;
80852;SDS011;70270;43.434;28.338;2023-06-10T08:11:13;6.65;;;4.22;;
80852;SDS011;70270;43.434;28.338;2023-06-10T08:13:57;12.98;;;4.82;;
80852;SDS011;70270;43.434;28.338;2023-06-10T08:16:43;9.55;;;4.72;;
80852;SDS011;70270;43.434;28.338;2023-06-10T08:19:27;7.32;;;4.13;;
80852;SDS011;70270;43.434;28.338;2023-06-10T08:22:11;10.23;;;4.20;;
80852;SDS011;70270;43.434;28.338;2023-06-10T08:24:56;9.35;;;4.18;;
80852;SDS011;70270;43.434;28.338;2023-06-10T08:27:40;8.23;;;5.68;;
80852;SDS011;70270;43.434;28.338;2023-06-10T08:30:25;10.25;;;4.70;;
80852;SDS011;70270;43.434;28.338;2023-06-10T08:33:09;6.70;;;3.78;;
80852;SDS011;70270;43.434;28.338;2023-06-10T08:35:53;8.88;;;4.32;;
80852;SDS011;70270;43.434;28.338;2023-06-10T08:38:38;6.55;;;4.10;;
80852;SDS011;70270;43.434;28.338;2023-06-10T08:41:22;9.00;;;4.47;;
80852;SDS011;70270;43.434;28.338;2023-06-10T08:44:22;9.10;;;4.22;;
80852;SDS011;70270;43.434;28.338;2023-06-10T08:47:14;10.65;;;4.45;;
80852;SDS011;70270;43.434;28.338;2023-06-10T08:50:01;9.15;;;4.30;;
80852;SDS011;70270;43.434;28.338;2023-06-10T08:52:48;7.40;;;4.25;;
80852;SDS011;70270;43.434;28.338;2023-06-10T08:55:37;8.52;;;4.82;;
80852;SDS011;70270;43.434;28.338;2023-06-10T08:58:25;7.32;;;4.18;;
80852;SDS011;70270;43.434;28.338;2023-06-10T09:01:11;8.52;;;4.60;;
80852;SDS011;70270;43.434;28.338;2023-06-10T09:03:57;7.43;;;4.40;;
80852;SDS011;70270;43.434;28.338;2023-06-10T09:06:43;12.43;;;5.95;;
80852;SDS011;70270;43.434;28.338;2023-06-10T09:09:33;8.07;;;4.57;;
80852;SDS011;70270;43.434;28.338;2023-06-10T09:12:19;10.23;;;4.50;;
80852;SDS011;70270;43.434;28.338;2023-06-10T09:15:04;8.18;;;4.45;;
80852;SDS011;70270;43.434;28.338;2023-06-10T09:20:34;11.65;;;6.55;;
80852;SDS011;70270;43.434;28.338;2023-06-10T09:23:19;10.65;;;5.00;;
80852;SDS011;70270;43.434;28.338;2023-06-10T09:26:07;8.02;;;4.65;;
80852;SDS011;70270;43.434;28.338;2023-06-10T09:28:57;7.75;;;4.55;;
80852;SDS011;70270;43.434;28.338;2023-06-10T09:31:48;7.15;;;4.25;;
80852;SDS011;70270;43.434;28.338;2023-06-10T09:34:33;10.18;;;4.47;;
80852;SDS011;70270;43.434;28.338;2023-06-10T09:37:21;8.52;;;5.35;;
80852;SDS011;70270;43.434;28.338;2023-06-10T09:42:55;8.10;;;4.18;;
80852;SDS011;70270;43.434;28.338;2023-06-10T09:45:44;12.27;;;4.80;;
80852;SDS011;70270;43.434;28.338;2023-06-10T09:48:34;9.00;;;4.57;;
80852;SDS011;70270;43.434;28.338;2023-06-10T09:51:19;13.18;;;5.28;;
80852;SDS011;70270;43.434;28.338;2023-06-10T09:54:03;9.05;;;4.78;;
80852;SDS011;70270;43.434;28.338;2023-06-10T09:56:48;9.25;;;5.18;;
80852;SDS011;70270;43.434;28.338;2023-06-10T09:59:34;10.82;;;4.57;;
80852;SDS011;70270;43.434;28.338;2023-06-10T10:02:21;8.55;;;4.70;;
80852;SDS011;70270;43.434;28.338;2023-06-10T10:05:06;11.05;;;5.35;;
80852;SDS011;70270;43.434;28.338;2023-06-10T10:07:51;10.68;;;4.40;;
80852;SDS011;70270;43.434;28.338;2023-06-10T10:10:36;9.48;;;4.70;;
80852;SDS011;70270;43.434;28.338;2023-06-10T10:13:20;10.05;;;5.13;;
80852;SDS011;70270;43.434;28.338;2023-06-10T10:16:11;10.40;;;4.80;;
80852;SDS011;70270;43.434;28.338;2023-06-10T10:19:01;9.80;;;4.57;;
80852;SDS011;70270;43.434;28.338;2023-06-10T10:21:56;11.30;;;4.35;;
80852;SDS011;70270;43.434;28.338;2023-06-10T10:24:59;8.32;;;4.03;;
80852;SDS011;70270;43.434;28.338;2023-06-10T10:28:06;8.40;;;3.97;;
80852;SDS011;70270;43.434;28.338;2023-06-10T10:30:57;7.03;;;4.18;;
80852;SDS011;70270;43.434;28.338;2023-06-10T10:34:00;9.25;;;4.05;;
80852;SDS011;70270;43.434;28.338;2023-06-10T10:36:46;6.70;;;3.80;;
80852;SDS011;70270;43.434;28.338;2023-06-10T10:39:33;10.73;;;4.32;;
80852;SDS011;70270;43.434;28.338;2023-06-10T10:42:18;10.18;;;4.05;;
80852;SDS011;70270;43.434;28.338;2023-06-10T10:45:03;8.00;;;3.95;;
80852;SDS011;70270;43.434;28.338;2023-06-10T10:47:51;6.53;;;4.05;;
80852;SDS011;70270;43.434;28.338;2023-06-10T10:50:37;9.35;;;4.10;;
80852;SDS011;70270;43.434;28.338;2023-06-10T10:53:22;8.13;;;4.00;;
80852;SDS011;70270;43.434;28.338;2023-06-10T10:59:04;9.25;;;3.63;;
80852;SDS011;70270;43.434;28.338;2023-06-10T11:01:50;7.20;;;4.28;;
80852;SDS011;70270;43.434;28.338;2023-06-10T11:04:34;7.13;;;3.70;;
80852;SDS011;70270;43.434;28.338;2023-06-10T11:07:20;7.28;;;3.85;;
80852;SDS011;70270;43.434;28.338;2023-06-10T11:10:06;8.38;;;3.90;;
80852;SDS011;70270;43.434;28.338;2023-06-10T11:12:55;10.90;;;3.92;;
80852;SDS011;70270;43.434;28.338;2023-06-10T11:15:44;7.55;;;4.07;;
80852;SDS011;70270;43.434;28.338;2023-06-10T11:18:38;7.25;;;3.88;;
80852;SDS011;70270;43.434;28.338;2023-06-10T11:21:26;6.10;;;3.90;;
80852;SDS011;70270;43.434;28.338;2023-06-10T11:24:13;11.65;;;3.90;;
80852;SDS011;70270;43.434;28.338;2023-06-10T11:30:21;9.60;;;3.90;;
80852;SDS011;70270;43.434;28.338;2023-06-10T11:33:13;7.43;;;3.92;;
80852;SDS011;70270;43.434;28.338;2023-06-10T11:36:01;8.40;;;4.10;;
80852;SDS011;70270;43.434;28.338;2023-06-10T11:38:58;9.50;;;4.18;;
80852;SDS011;70270;43.434;28.338;2023-06-10T11:41:45;6.32;;;3.80;;
80852;SDS011;70270;43.434;28.338;2023-06-10T11:44:29;9.75;;;4.40;;
80852;SDS011;70270;43.434;28.338;2023-06-10T11:47:14;11.20;;;4.03;;
80852;SDS011;70270;43.434;28.338;2023-06-10T11:49:58;7.72;;;3.90;;
80852;SDS011;70270;43.434;28.338;2023-06-10T11:52:45;8.05;;;4.03;;
80852;SDS011;70270;43.434;28.338;2023-06-10T11:55:43;7.15;;;3.70;;
80852;SDS011;70270;43.434;28.338;2023-06-10T11:58:29;7.63;;;3.45;;
80852;SDS011;70270;43.434;28.338;2023-06-10T12:01:18;6.70;;;3.53;;
80852;SDS011;70270;43.434;28.338;2023-06-10T12:04:08;5.68;;;3.65;;
80852;SDS011;70270;43.434;28.338;2023-06-10T12:06:55;6.45;;;3.67;;
80852;SDS011;70270;43.434;28.338;2023-06-10T12:09:39;7.63;;;3.88;;
80852;SDS011;70270;43.434;28.338;2023-06-10T12:12:24;6.18;;;3.40;;
80852;SDS011;70270;43.434;28.338;2023-06-10T12:15:09;6.32;;;4.15;;
80852;SDS011;70270;43.434;28.338;2023-06-10T12:17:53;7.50;;;3.95;;
80852;SDS011;70270;43.434;28.338;2023-06-10T12:20:38;6.47;;;4.22;;
80852;SDS011;70270;43.434;28.338;2023-06-10T12:26:08;8.55;;;4.13;;
80852;SDS011;70270;43.434;28.338;2023-06-10T12:28:52;9.38;;;4.07;;
80852;SDS011;70270;43.434;28.338;2023-06-10T12:31:59;8.18;;;4.50;;
80852;SDS011;70270;43.434;28.338;2023-06-10T12:34:43;9.20;;;3.83;;
80852;SDS011;70270;43.434;28.338;2023-06-10T12:37:27;8.88;;;4.13;;
80852;SDS011;70270;43.434;28.338;2023-06-10T12:40:12;7.03;;;4.55;;
80852;SDS011;70270;43.434;28.338;2023-06-10T12:42:57;8.93;;;4.18;;
80852;SDS011;70270;43.434;28.338;2023-06-10T12:45:42;8.02;;;3.85;;
80852;SDS011;70270;43.434;28.338;2023-06-10T12:48:29;8.52;;;3.50;;
80852;SDS011;70270;43.434;28.338;2023-06-10T12:51:13;6.88;;;4.13;;
80852;SDS011;70270;43.434;28.338;2023-06-10T12:53:58;6.85;;;4.10;;
80852;SDS011;70270;43.434;28.338;2023-06-10T12:56:42;12.50;;;3.95;;
80852;SDS011;70270;43.434;28.338;2023-06-10T12:59:27;6.72;;;3.83;;
80852;SDS011;70270;43.434;28.338;2023-06-10T13:02:12;6.43;;;4.20;;
80852;SDS011;70270;43.434;28.338;2023-06-10T13:04:57;9.10;;;4.13;;
80852;SDS011;70270;43.434;28.338;2023-06-10T13:07:41;6.32;;;3.80;;
80852;SDS011;70270;43.434;28.338;2023-06-10T13:10:26;6.72;;;4.10;;
80852;SDS011;70270;43.434;28.338;2023-06-10T13:13:11;8.80;;;3.72;;
80852;SDS011;70270;43.434;28.338;2023-06-10T13:15:55;9.38;;;3.97;;
80852;SDS011;70270;43.434;28.338;2023-06-10T13:18:40;8.00;;;3.80;;
80852;SDS011;70270;43.434;28.338;2023-06-10T13:21:24;6.68;;;4.00;;
80852;SDS011;70270;43.434;28.338;2023-06-10T13:24:10;7.32;;;3.80;;
80852;SDS011;70270;43.434;28.338;2023-06-10T13:26:54;7.13;;;3.65;;
80852;SDS011;70270;43.434;28.338;2023-06-10T13:29:40;6.40;;;3.50;;
80852;SDS011;70270;43.434;28.338;2023-06-10T13:32:24;7.38;;;3.97;;
80852;SDS011;70270;43.434;28.338;2023-06-10T13:35:09;8.00;;;4.03;;
80852;SDS011;70270;43.434;28.338;2023-06-10T13:37:53;6.07;;;3.92;;
80852;SDS011;70270;43.434;28.338;2023-06-10T13:40:38;9.75;;;4.07;;
80852;SDS011;70270;43.434;28.338;2023-06-10T13:43:22;7.10;;;3.67;;
80852;SDS011;70270;43.434;28.338;2023-06-10T13:46:07;8.65;;;3.95;;
80852;SDS011;70270;43.434;28.338;2023-06-10T13:48:51;7.40;;;3.60;;
80852;SDS011;70270;43.434;28.338;2023-06-10T13:51:36;6.38;;;3.70;;
80852;SDS011;70270;43.434;28.338;2023-06-10T13:54:20;6.10;;;4.10;;
80852;SDS011;70270;43.434;28.338;2023-06-10T13:57:05;9.70;;;4.05;;
80852;SDS011;70270;43.434;28.338;2023-06-10T13:59:50;11.50;;;4.53;;
80852;SDS011;70270;43.434;28.338;2023-06-10T14:02:34;8.30;;;3.53;;
80852;SDS011;70270;43.434;28.338;2023-06-10T14:05:19;8.85;;;3.47;;
80852;SDS011;70270;43.434;28.338;2023-06-10T14:08:03;5.85;;;3.72;;
80852;SDS011;70270;43.434;28.338;2023-06-10T14:10:48;7.10;;;3.30;;
80852;SDS011;70270;43.434;28.338;2023-06-10T14:13:35;8.00;;;3.92;;
80852;SDS011;70270;43.434;28.338;2023-06-10T14:16:22;8.27;;;4.07;;
80852;SDS011;70270;43.434;28.338;2023-06-10T14:19:09;7.65;;;4.32;;
80852;SDS011;70270;43.434;28.338;2023-06-10T14:21:54;10.13;;;4.10;;
80852;SDS011;70270;43.434;28.338;2023-06-10T14:24:39;6.28;;;3.58;;
80852;SDS011;70270;43.434;28.338;2023-06-10T14:27:23;8.43;;;5.03;;
80852;SDS011;70270;43.434;28.338;2023-06-10T14:30:08;11.48;;;4.40;;
80852;SDS011;70270;43.434;28.338;2023-06-10T14:32:52;9.65;;;4.45;;
80852;SDS011;70270;43.434;28.338;2023-06-10T14:35:37;13.38;;;4.80;;
80852;SDS011;70270;43.434;28.338;2023-06-10T14:38:21;11.35;;;5.13;;
80852;SDS011;70270;43.434;28.338;2023-06-10T14:41:06;12.15;;;5.55;;
80852;SDS011;70270;43.434;28.338;2023-06-10T14:43:50;9.13;;;5.07;;
80852;SDS011;70270;43.434;28.338;2023-06-10T14:46:34;10.52;;;5.53;;
80852;SDS011;70270;43.434;28.338;2023-06-10T14:49:19;13.65;;;5.90;;
80852;SDS011;70270;43.434;28.338;2023-06-10T14:52:06;14.85;;;6.00;;
80852;SDS011;70270;43.434;28.338;2023-06-10T14:54:51;10.55;;;5.57;;
80852;SDS011;70270;43.434;28.338;2023-06-10T14:57:35;13.48;;;6.43;;
80852;SDS011;70270;43.434;28.338;2023-06-10T15:00:20;10.48;;;5.72;;
80852;SDS011;70270;43.434;28.338;2023-06-10T15:03:07;12.25;;;5.82;;
80852;SDS011;70270;43.434;28.338;2023-06-10T15:05:51;11.82;;;6.00;;
80852;SDS011;70270;43.434;28.338;2023-06-10T15:08:36;14.35;;;5.82;;
80852;SDS011;70270;43.434;28.338;2023-06-10T15:11:20;10.23;;;5.20;;
80852;SDS011;70270;43.434;28.338;2023-06-10T15:14:06;14.18;;;5.75;;
80852;SDS011;70270;43.434;28.338;2023-06-10T15:16:50;9.38;;;5.85;;
80852;SDS011;70270;43.434;28.338;2023-06-10T15:19:34;11.70;;;5.75;;
80852;SDS011;70270;43.434;28.338;2023-06-10T15:22:20;13.98;;;5.47;;
80852;SDS011;70270;43.434;28.338;2023-06-10T15:25:07;23.33;;;11.05;;
80852;SDS011;70270;43.434;28.338;2023-06-10T15:27:52;12.35;;;5.82;;
80852;SDS011;70270;43.434;28.338;2023-06-10T15:30:39;9.05;;;4.88;;
80852;SDS011;70270;43.434;28.338;2023-06-10T15:33:23;13.70;;;5.40;;
80852;SDS011;70270;43.434;28.338;2023-06-10T15:36:08;9.48;;;5.70;;
80852;SDS011;70270;43.434;28.338;2023-06-10T15:38:53;12.68;;;6.45;;
80852;SDS011;70270;43.434;28.338;2023-06-10T15:41:37;11.93;;;5.40;;
80852;SDS011;70270;43.434;28.338;2023-06-10T15:44:22;13.88;;;6.20;;
80852;SDS011;70270;43.434;28.338;2023-06-10T15:47:06;13.82;;;6.22;;
80852;SDS011;70270;43.434;28.338;2023-06-10T15:49:51;10.05;;;5.78;;
80852;SDS011;70270;43.434;28.338;2023-06-10T15:52:36;13.93;;;5.90;;
80852;SDS011;70270;43.434;28.338;2023-06-10T15:55:20;12.63;;;5.63;;
80852;SDS011;70270;43.434;28.338;2023-06-10T15:58:05;10.90;;;5.75;;
80852;SDS011;70270;43.434;28.338;2023-06-10T16:00:49;11.25;;;5.80;;
80852;SDS011;70270;43.434;28.338;2023-06-10T16:03:34;10.80;;;5.90;;
80852;SDS011;70270;43.434;28.338;2023-06-10T16:06:19;12.38;;;5.93;;
80852;SDS011;70270;43.434;28.338;2023-06-10T16:09:03;13.40;;;5.78;;
80852;SDS011;70270;43.434;28.338;2023-06-10T16:11:47;13.00;;;5.85;;
80852;SDS011;70270;43.434;28.338;2023-06-10T16:14:32;12.75;;;5.82;;
80852;SDS011;70270;43.434;28.338;2023-06-10T16:17:16;11.82;;;6.38;;
80852;SDS011;70270;43.434;28.338;2023-06-10T16:20:01;13.27;;;6.85;;
80852;SDS011;70270;43.434;28.338;2023-06-10T16:22:45;13.75;;;6.70;;
80852;SDS011;70270;43.434;28.338;2023-06-10T16:25:30;12.02;;;6.45;;
80852;SDS011;70270;43.434;28.338;2023-06-10T16:28:15;11.52;;;6.65;;
80852;SDS011;70270;43.434;28.338;2023-06-10T16:31:00;12.30;;;6.80;;
80852;SDS011;70270;43.434;28.338;2023-06-10T16:33:44;10.52;;;6.70;;
80852;SDS011;70270;43.434;28.338;2023-06-10T16:36:29;8.52;;;5.90;;
80852;SDS011;70270;43.434;28.338;2023-06-10T16:39:13;16.58;;;6.25;;
80852;SDS011;70270;43.434;28.338;2023-06-10T16:41:57;12.95;;;6.93;;